Tuesday, December 18, 2018, 12:29 PM EST
Back to Local

KCAR, Caribou Municipal Airport

Location: Caribou, ME, United States Lat: 46.867
Local Time: 12:29 PM EST (17:29 GMT) Lon: -68.017
Time Zone: US/Eastern Elev: 626 ft

Show me the last for .
Show Decoded

2018-12-18 11:54 METAR KCAR 181654Z AUTO 32020G29KT 4SM HZ OVC025 M06/M11 A2952 RMK AO2 PK WND
                 32029/1653 UPE1556B05E09B27E39SNB1556E05 SLP007 P0000 T10561106 =
2018-12-18 11:10 METAR KCAR 181610Z AUTO 32017G29KT 4SM HZ OVC024 M06/M11 A2951 RMK AO2 PK WND
                 32029/1600 UPE1556B05E09SNB1556E05 P0000 T10561106 =
2018-12-18 11:03 METAR KCAR 181603Z AUTO 32019G30KT 2 1/2SM -SN OVC025 M06/M11 A2951 RMK AO2 PK
                 WND 32029/1600 VIS 1 3/4V4 UPE1556SNB1556 P0000 T10561106 =
2018-12-18 10:54 METAR KCAR 181554Z AUTO 32021G33KT 3SM UP OVC025 M06/M11 A2951 RMK AO2 PK WND
                 33033/1553 UPE1457B06 SLP006 P0000 T10561106 =
2018-12-18 10:41 METAR KCAR 181541Z AUTO 32023G32KT 3SM UP BKN024 M06/M11 A2951 RMK AO2 PK WND
                 33033/1510 UPE1457B06 P0000 T10561106 =
2018-12-18 10:24 METAR KCAR 181524Z AUTO 32021G32KT 2SM UP BKN022 M06/M11 A2951 RMK AO2 PK WND
                 33033/1510 VIS 1V5 UPE1457B06 P0000 T10561106 =
2018-12-18 10:19 METAR KCAR 181519Z AUTO 32019G33KT 3SM UP SCT023 M06/M11 A2950 RMK AO2 PK WND
                 33033/1510 UPE1457B06 P0000 T10561106 =
2018-12-18 10:10 METAR KCAR 181510Z AUTO 33021G33KT 2SM UP BKN023 M06/M11 A2950 RMK AO2 PK WND
                 33033/1510 UPE1457B06 P0000 T10611106 =
2018-12-18 10:01 METAR KCAR 181501Z AUTO 32018G29KT 3SM HZ SCT023 M06/M11 A2950 =
2018-12-18 09:54 METAR KCAR 181454Z AUTO 32019G29KT 3SM UP BKN023 M06/M11 A2950 RMK AO2 PK WND
                 32029/1453 UPB20E22B39 SLP003 P0000 60000 T10611106 51023 =
2018-12-18 08:54 METAR KCAR 181354Z AUTO 32017G29KT 5SM HZ BKN022 BKN031 M06/M11 A2950 RMK AO2 PK
                 WND 32033/1321 UPE04B23E33 SLP001 P0000 T10611106 =
2018-12-18 08:07 METAR KCAR 181307Z AUTO 33017G27KT 5SM HZ OVC022 M06/M10 A2947 RMK AO2 PK WND
                 33033/1255 UPE04 P0000 T10611100 =
2018-12-18 07:54 METAR KCAR 181254Z AUTO 33020G30KT 2 1/2SM UP OVC022 M06/M10 A2946 RMK AO2 PK
                 WND 33031/1242 VIS 1 3/4V4 UPB06 SLP989 P0000 T10611100 =
2018-12-18 06:54 METAR KCAR 181154Z AUTO 33017G24KT 7SM OVC019 M06/M09 A2943 RMK AO2 PK WND
                 32035/1105 UPB07E53SNE07 SLP979 P0000 60005 70060 T10561089 11022 21056 53027 =
2018-12-18 06:25 METAR KCAR 181125Z AUTO 33018G30KT 4SM UP BKN018 BKN034 OVC048 M06/M09 A2942 RMK
                 AO2 PK WND 32035/1105 UPB07SNE07 P0000 T10561089 =
2018-12-18 05:54 METAR KCAR 181054Z AUTO 32017G26KT 3SM -SN FEW016 OVC038 M06/M08 A2940 RMK AO2
                 PK WND 32027/1026 SLP968 P0000 T10561083 =
2018-12-18 05:42 METAR KCAR 181042Z AUTO 33015G26KT 2SM -SN OVC040 M05/M08 A2939 RMK AO2 PK WND
                 32027/1026 P0000 T10501083 =
2018-12-18 05:20 METAR KCAR 181020Z AUTO 32015G26KT 1 3/4SM -SN OVC050 M05/M08 A2938 RMK AO2 PK
                 WND 31026/1012 P0000 T10501083 =
2018-12-18 05:03 METAR KCAR 181003Z AUTO 32016G22KT 2SM -SN OVC055 M05/M08 A2938 RMK AO2 P0000
                 T10501078 =
2018-12-18 04:54 METAR KCAR 180954Z AUTO 32015G29KT 1 3/4SM -SN OVC055 M05/M08 A2937 RMK AO2 PK
                 WND 30029/0945 SLP958 P0000 T10501078 =
2018-12-18 04:36 METAR KCAR 180936Z AUTO 32016G27KT 2SM -SN OVC045 M04/M08 A2936 RMK AO2 PK WND
                 33027/0900 P0000 T10441078 =
2018-12-18 04:20 METAR KCAR 180920Z AUTO 32015G23KT 1 1/2SM -SN OVC033 M04/M07 A2936 RMK AO2 PK
                 WND 33027/0900 P0000 T10441072 =
2018-12-18 04:12 METAR KCAR 180912Z AUTO 32014G25KT 1 1/4SM -SN OVC031 M04/M07 A2936 RMK AO2 PK
                 WND 33027/0900 P0000 T10441072 =
2018-12-18 03:54 METAR KCAR 180854Z AUTO 32013G25KT 1 1/4SM -SN OVC029 M04/M07 A2935 RMK AO2
                 SLP951 P0001 60005 T10441072 53008 =
2018-12-18 03:24 METAR KCAR 180824Z AUTO 33015G25KT 1SM -SN FEW010 OVC015 M04/M07 A2935 RMK AO2
                 P0000 T10391067 =
2018-12-18 02:54 METAR KCAR 180754Z AUTO 33016G27KT 1/2SM SN FZFG VV011 M03/M05 A2934 RMK AO2 PK
                 WND 32027/0752 SLP945 P0002 T10281050 =
2018-12-18 02:50 METAR KCAR 180750Z AUTO 32015G25KT 1/2SM SN FZFG VV013 M03/M05 A2934 RMK AO2
                 P0001 =
2018-12-18 02:42 METAR KCAR 180742Z AUTO 32010KT 3/4SM -SN BR VV015 M02/M04 A2934 RMK AO2 P0001
                 T10221044 =
2018-12-18 01:54 METAR KCAR 180654Z AUTO 34010G17KT 1 1/4SM -SN BR OVC025 M02/M04 A2933 RMK AO2
                 SLP942 P0002 T10221044 =
2018-12-18 01:25 METAR KCAR 180625Z AUTO 34011KT 1 1/2SM -SN BR OVC028 M02/M04 A2932 RMK AO2
                 P0001 T10221044 =
2018-12-18 01:17 METAR KCAR 180617Z AUTO 34009KT 1 1/4SM -SN BR OVC026 M02/M04 A2932 =
2018-12-18 01:07 METAR KCAR 180607Z AUTO 34010G19KT 1 1/2SM -SN BR OVC028 M02/M04 A2932 RMK AO2
                 P0001 T10221044 =
2018-12-18 00:54 METAR KCAR 180554Z AUTO 35009KT 1 1/2SM -SN BR OVC030 M02/M04 A2932 RMK AO2
                 SLP938 P0002 60013 T10221044 11022 21028 55005 =
2018-12-18 00:49 METAR KCAR 180549Z AUTO 35010KT 1 1/4SM -SN BR OVC030 M02/M04 A2931 RMK AO2
                 P0002 =
2018-12-17 23:54 METAR KCAR 180454Z AUTO 35010KT 1SM -SN BR VV017 M02/M04 A2931 RMK AO2 SLP937
                 P0002 T10221044 410111078 =
2018-12-17 22:54 METAR KCAR 180354Z AUTO 35008KT 1SM -SN BR VV017 M02/M04 A2933 RMK AO2 SLP943
                 P0002 T10221044 =
2018-12-17 22:28 METAR KCAR 180328Z AUTO 35008KT 1 1/4SM -SN BR OVC022 M02/M04 A2934 RMK AO2
                 P0001 T10221044 =
2018-12-17 21:54 METAR KCAR 180254Z AUTO 34008KT 1 1/2SM -SN BR BKN028 OVC036 M03/M04 A2935 RMK
                 AO2 SLP951 P0002 60007 T10281044 56017 =
2018-12-17 21:42 METAR KCAR 180242Z AUTO 34008KT 1 1/2SM -SN BR BKN026 OVC037 M03/M04 A2936 RMK
                 AO2 P0001 T10281044 =
2018-12-17 21:17 METAR KCAR 180217Z AUTO 34008KT 1 1/4SM -SN BR BKN022 OVC030 M03/M04 A2936 RMK
                 AO2 P0001 T10281044 =
2018-12-17 20:54 METAR KCAR 180154Z AUTO 34008KT 1 1/2SM -SN BR BKN020 OVC032 M02/M04 A2937 RMK
                 AO2 SLP956 P0003 T10221044 =
2018-12-17 20:45 METAR KCAR 180145Z AUTO 34007KT 1 1/4SM -SN BR BKN018 OVC032 M02/M04 A2937 RMK
                 AO2 P0003 T10221044 =
2018-12-17 20:38 METAR KCAR 180138Z AUTO 34008KT 3/4SM -SN BR VV017 M02/M04 A2937 RMK AO2 P0002
                 T10221044 =
2018-12-17 19:54 METAR KCAR 180054Z AUTO 35006KT 1SM -SN BR VV018 M02/M04 A2939 RMK AO2 SLP963
                 P0002 T10221039 =
2018-12-17 19:47 METAR KCAR 180047Z AUTO 36007KT 1 1/4SM -SN BR OVC018 M02/M04 A2938 RMK AO2
                 P0002 T10221039 =
2018-12-17 19:12 METAR KCAR 180012Z AUTO 01006KT 1 1/2SM -SN BR OVC015 M02/M04 A2940 RMK AO2
                 P0001 T10221039 =
2018-12-17 18:54 METAR KCAR 172354Z AUTO 01006KT 1 1/4SM -SN BR OVC014 M02/M04 A2940 RMK AO2
                 SLP969 P0005 60021 T10221039 11011 21022 58010 =
2018-12-17 18:33 METAR KCAR 172333Z AUTO 02006KT 1SM -SN BR VV012 M02/M04 A2941 RMK AO2 P0004
                 T10221039 =
2018-12-17 18:26 METAR KCAR 172326Z AUTO 02006KT 3/4SM -SN BR VV011 M02/M04 A2941 RMK AO2 P0003
                 T10221039 =
2018-12-17 18:17 METAR KCAR 172317Z AUTO 02007KT 1SM -SN BR VV010 M02/M04 A2942 RMK AO2 P0003
                 T10221039 =
2018-12-17 17:54 METAR KCAR 172254Z AUTO 01007KT 3/4SM -SN BR VV009 M02/M04 A2942 RMK AO2 SLP975
                 P0004 T10221039 =
2018-12-17 17:52 METAR KCAR 172252Z AUTO 01008KT 3/4SM -SN BR VV009 M02/M04 A2942 RMK AO2 P0004 =
2018-12-17 17:39 METAR KCAR 172239Z AUTO 02007KT 3/4SM -SN BR VV011 M02/M04 A2943 RMK AO2 P0003
                 T10221039 =
2018-12-17 17:26 METAR KCAR 172226Z AUTO 01007KT 1SM -SN BR VV013 M02/M04 A2943 RMK AO2 P0002
                 T10221039 =
2018-12-17 16:54 METAR KCAR 172154Z AUTO 01007KT 1 1/4SM -SN BR OVC015 M02/M04 A2943 RMK AO2
                 SLP979 P0003 T10171039 =
2018-12-17 16:45 METAR KCAR 172145Z AUTO 01007KT 1SM -SN BR VV015 M02/M04 A2944 RMK AO2 P0002
                 T10171039 =
2018-12-17 16:35 METAR KCAR 172135Z AUTO 01007KT 3/4SM -SN BR VV013 M02/M03 A2944 RMK AO2 P0002
                 T10171033 =
2018-12-17 16:25 METAR KCAR 172125Z AUTO 01007KT 1SM -SN BR VV014 M02/M03 A2944 RMK AO2 P0001
                 T10171033 =
2018-12-17 16:12 METAR KCAR 172112Z AUTO 02005KT 1 1/4SM -SN BR OVC015 M02/M03 A2945 RMK AO2
                 P0001 T10171033 =
2018-12-17 16:02 METAR KCAR 172102Z AUTO 02006KT 1SM -SN BR VV013 M02/M03 A2945 RMK AO2 P0000
                 T10171033 =
2018-12-17 15:54 METAR KCAR 172054Z AUTO 01006KT 3/4SM -SN BR VV013 M02/M03 A2945 RMK AO2 SLP985
                 P0003 60009 T10171033 56020 =
2018-12-17 15:43 METAR KCAR 172043Z AUTO 01005KT 1/2SM SN FZFG VV013 M02/M03 A2945 RMK AO2 P0002
                 T10171033 =
2018-12-17 15:15 METAR KCAR 172015Z AUTO 01006KT 3/4SM -SN BR VV018 M02/M03 A2946 RMK AO2 P0000
                 T10171033 =
2018-12-17 14:54 METAR KCAR 171954Z AUTO 01007KT 1 1/4SM -SN BR FEW005 OVC024 M01/M03 A2946 RMK
                 AO2 SLP989 P0003 T10111033 =
2018-12-17 14:46 METAR KCAR 171946Z AUTO 01007KT 1 1/4SM -SN BR FEW005 OVC024 M01/M03 A2946 RMK
                 AO2 P0002 T10111033 =
2018-12-17 14:34 METAR KCAR 171934Z AUTO 02007KT 3/4SM -SN BR SCT005 OVC016 M01/M03 A2947 RMK AO2
                 P0002 T10111033 =
2018-12-17 14:15 METAR KCAR 171915Z AUTO 02006KT 3/4SM -SN BR BKN005 OVC012 M01/M03 A2947 RMK AO2
                 P0001 T10111028 =
2018-12-17 13:54 METAR KCAR 171854Z AUTO 01006KT 1/2SM -SN FZFG SCT005 OVC010 M01/M03 A2948 RMK
                 AO2 SLP995 P0003 T10111033 =
2018-12-17 13:46 METAR KCAR 171846Z AUTO 02006KT 1/2SM SN FZFG SCT005 OVC012 M01/M03 A2948 RMK
                 AO2 P0003 T10111028 =
2018-12-17 13:19 METAR KCAR 171819Z AUTO 03005KT 3/4SM -SN BR SCT005 OVC018 M01/M03 A2950 =
2018-12-17 13:01 METAR KCAR 171801Z AUTO 02005KT 1/2SM -SN FZFG FEW005 BKN012 OVC019 M01/M03
                 A2951 =
2018-12-17 12:54 METAR KCAR 171754Z AUTO 02005KT 1/2SM SN FZFG BKN010 OVC019 M01/M03 A2951 RMK
                 AO2 SLP005 P0004 60021 T10111033 11011 21056 56048 =

Support USWX by starting your Amazon purchase here.